sensor_id;sensor_type;location;lat;lon;timestamp;P1;durP1;ratioP1;P2;durP2;ratioP2
60472;SDS011;46318;52.716;6.444;2022-08-19T18:37:45;15.30;;;13.18;;
60472;SDS011;46318;52.716;6.444;2022-08-19T18:40:16;14.25;;;12.88;;
60472;SDS011;46318;52.716;6.444;2022-08-19T18:43:03;15.48;;;13.35;;
60472;SDS011;46318;52.716;6.444;2022-08-19T18:45:49;14.52;;;13.13;;
60472;SDS011;46318;52.716;6.444;2022-08-19T18:48:34;15.95;;;14.45;;
60472;SDS011;46318;52.716;6.444;2022-08-19T18:51:20;16.20;;;14.60;;
60472;SDS011;46318;52.716;6.444;2022-08-19T18:53:47;16.55;;;14.95;;
60472;SDS011;46318;52.716;6.444;2022-08-19T18:56:15;16.95;;;15.25;;
60472;SDS011;46318;52.716;6.444;2022-08-19T18:58:43;16.02;;;14.43;;
60472;SDS011;46318;52.716;6.444;2022-08-19T19:01:11;16.60;;;15.02;;
60472;SDS011;46318;52.716;6.444;2022-08-19T19:06:18;14.68;;;13.25;;
60472;SDS011;46318;52.716;6.444;2022-08-19T19:08:51;15.68;;;14.13;;
60472;SDS011;46318;52.716;6.444;2022-08-19T19:11:26;13.38;;;12.10;;
60472;SDS011;46318;52.716;6.444;2022-08-19T19:13:56;14.80;;;13.55;;
60472;SDS011;46318;52.716;6.444;2022-08-19T19:16:25;14.23;;;12.88;;
60472;SDS011;46318;52.716;6.444;2022-08-19T19:18:53;14.88;;;13.43;;
60472;SDS011;46318;52.716;6.444;2022-08-19T19:21:19;13.90;;;12.40;;
60472;SDS011;46318;52.716;6.444;2022-08-19T19:23:48;14.48;;;12.40;;
60472;SDS011;46318;52.716;6.444;2022-08-19T19:26:14;13.55;;;12.20;;
60472;SDS011;46318;52.716;6.444;2022-08-19T19:28:41;14.10;;;12.77;;
60472;SDS011;46318;52.716;6.444;2022-08-19T19:31:10;14.05;;;12.80;;
60472;SDS011;46318;52.716;6.444;2022-08-19T19:33:41;12.93;;;11.82;;
60472;SDS011;46318;52.716;6.444;2022-08-19T19:36:07;14.00;;;12.70;;
60472;SDS011;46318;52.716;6.444;2022-08-19T19:38:33;13.48;;;12.10;;
60472;SDS011;46318;52.716;6.444;2022-08-19T19:40:59;14.60;;;13.13;;
60472;SDS011;46318;52.716;6.444;2022-08-19T19:43:25;13.70;;;12.50;;
60472;SDS011;46318;52.716;6.444;2022-08-19T19:45:53;13.45;;;12.05;;
60472;SDS011;46318;52.716;6.444;2022-08-19T19:48:22;13.57;;;12.38;;
60472;SDS011;46318;52.716;6.444;2022-08-19T19:50:48;13.70;;;12.43;;
60472;SDS011;46318;52.716;6.444;2022-08-19T19:53:14;13.85;;;12.55;;
60472;SDS011;46318;52.716;6.444;2022-08-19T19:55:40;13.65;;;12.35;;
60472;SDS011;46318;52.716;6.444;2022-08-19T19:58:07;14.18;;;12.75;;
60472;SDS011;46318;52.716;6.444;2022-08-19T20:00:33;14.02;;;12.55;;
60472;SDS011;46318;52.716;6.444;2022-08-19T20:02:59;14.18;;;13.07;;
60472;SDS011;46318;52.716;6.444;2022-08-19T20:05:25;14.02;;;12.75;;
60472;SDS011;46318;52.716;6.444;2022-08-19T20:07:52;13.57;;;12.38;;
60472;SDS011;46318;52.716;6.444;2022-08-19T20:10:38;13.93;;;12.80;;
60472;SDS011;46318;52.716;6.444;2022-08-19T20:13:06;13.05;;;11.93;;
60472;SDS011;46318;52.716;6.444;2022-08-19T20:15:34;13.27;;;12.13;;
60472;SDS011;46318;52.716;6.444;2022-08-19T20:18:01;13.07;;;11.88;;
60472;SDS011;46318;52.716;6.444;2022-08-19T20:20:28;11.90;;;10.93;;
60472;SDS011;46318;52.716;6.444;2022-08-19T20:22:55;12.60;;;11.35;;
60472;SDS011;46318;52.716;6.444;2022-08-19T20:25:22;13.13;;;11.82;;
60472;SDS011;46318;52.716;6.444;2022-08-19T20:27:48;13.50;;;12.13;;
60472;SDS011;46318;52.716;6.444;2022-08-19T20:30:16;12.55;;;11.35;;
60472;SDS011;46318;52.716;6.444;2022-08-19T20:32:45;11.75;;;10.73;;
60472;SDS011;46318;52.716;6.444;2022-08-19T20:35:13;11.82;;;10.88;;
60472;SDS011;46318;52.716;6.444;2022-08-19T20:37:42;12.75;;;11.65;;
60472;SDS011;46318;52.716;6.444;2022-08-19T20:40:09;13.18;;;11.90;;
60472;SDS011;46318;52.716;6.444;2022-08-19T20:42:37;12.77;;;11.68;;
60472;SDS011;46318;52.716;6.444;2022-08-19T20:45:15;11.75;;;10.75;;
60472;SDS011;46318;52.716;6.444;2022-08-19T20:47:42;13.82;;;12.63;;
60472;SDS011;46318;52.716;6.444;2022-08-19T20:50:09;13.40;;;12.18;;
60472;SDS011;46318;52.716;6.444;2022-08-19T20:52:36;13.07;;;11.73;;
60472;SDS011;46318;52.716;6.444;2022-08-19T20:55:03;12.68;;;11.57;;
60472;SDS011;46318;52.716;6.444;2022-08-19T20:57:29;12.57;;;11.43;;
60472;SDS011;46318;52.716;6.444;2022-08-19T20:59:55;12.95;;;11.73;;
60472;SDS011;46318;52.716;6.444;2022-08-19T21:02:21;11.90;;;10.80;;
60472;SDS011;46318;52.716;6.444;2022-08-19T21:04:49;14.20;;;13.00;;
60472;SDS011;46318;52.716;6.444;2022-08-19T21:07:15;13.35;;;12.25;;
60472;SDS011;46318;52.716;6.444;2022-08-19T21:09:41;13.57;;;12.07;;
60472;SDS011;46318;52.716;6.444;2022-08-19T21:12:12;13.30;;;12.10;;
60472;SDS011;46318;52.716;6.444;2022-08-19T21:14:39;13.77;;;12.48;;
60472;SDS011;46318;52.716;6.444;2022-08-19T21:17:07;13.75;;;12.45;;
60472;SDS011;46318;52.716;6.444;2022-08-19T21:19:33;13.40;;;12.18;;
60472;SDS011;46318;52.716;6.444;2022-08-19T21:21:59;13.32;;;12.07;;
60472;SDS011;46318;52.716;6.444;2022-08-19T21:24:26;13.48;;;12.27;;
60472;SDS011;46318;52.716;6.444;2022-08-19T21:26:52;13.65;;;12.55;;
60472;SDS011;46318;52.716;6.444;2022-08-19T21:29:18;13.40;;;12.02;;
60472;SDS011;46318;52.716;6.444;2022-08-19T21:31:44;13.82;;;12.63;;
60472;SDS011;46318;52.716;6.444;2022-08-19T21:34:09;13.52;;;12.23;;
60472;SDS011;46318;52.716;6.444;2022-08-19T21:36:35;13.75;;;12.38;;
60472;SDS011;46318;52.716;6.444;2022-08-19T21:39:01;12.55;;;11.35;;
60472;SDS011;46318;52.716;6.444;2022-08-19T21:41:28;15.20;;;13.55;;
60472;SDS011;46318;52.716;6.444;2022-08-19T21:43:54;13.57;;;12.27;;
60472;SDS011;46318;52.716;6.444;2022-08-19T21:46:21;13.13;;;11.82;;
60472;SDS011;46318;52.716;6.444;2022-08-19T21:48:46;14.30;;;12.93;;
60472;SDS011;46318;52.716;6.444;2022-08-19T21:51:12;13.23;;;11.93;;
60472;SDS011;46318;52.716;6.444;2022-08-19T21:53:39;13.43;;;12.20;;
60472;SDS011;46318;52.716;6.444;2022-08-19T21:56:05;12.70;;;11.57;;
60472;SDS011;46318;52.716;6.444;2022-08-19T21:58:31;13.32;;;11.98;;
60472;SDS011;46318;52.716;6.444;2022-08-19T22:00:58;11.50;;;10.40;;
60472;SDS011;46318;52.716;6.444;2022-08-19T22:03:29;13.00;;;11.80;;
60472;SDS011;46318;52.716;6.444;2022-08-19T22:05:55;15.65;;;11.57;;
60472;SDS011;46318;52.716;6.444;2022-08-19T22:08:22;12.50;;;11.30;;
60472;SDS011;46318;52.716;6.444;2022-08-19T22:10:50;12.85;;;11.55;;
60472;SDS011;46318;52.716;6.444;2022-08-19T22:13:16;12.73;;;11.50;;
60472;SDS011;46318;52.716;6.444;2022-08-19T22:15:43;12.20;;;11.10;;
60472;SDS011;46318;52.716;6.444;2022-08-19T22:18:09;12.57;;;11.27;;
60472;SDS011;46318;52.716;6.444;2022-08-19T22:20:37;14.93;;;11.98;;
60472;SDS011;46318;52.716;6.444;2022-08-19T22:23:04;12.85;;;11.38;;
60472;SDS011;46318;52.716;6.444;2022-08-19T22:25:32;13.45;;;11.77;;
60472;SDS011;46318;52.716;6.444;2022-08-19T22:28:06;13.60;;;12.27;;
60472;SDS011;46318;52.716;6.444;2022-08-19T22:30:35;13.05;;;11.77;;
60472;SDS011;46318;52.716;6.444;2022-08-19T22:33:03;13.10;;;11.90;;
60472;SDS011;46318;52.716;6.444;2022-08-19T22:35:35;13.25;;;11.98;;
60472;SDS011;46318;52.716;6.444;2022-08-19T22:38:02;12.75;;;11.43;;
60472;SDS011;46318;52.716;6.444;2022-08-19T22:40:32;12.60;;;11.40;;
60472;SDS011;46318;52.716;6.444;2022-08-19T22:43:04;13.82;;;12.50;;
60472;SDS011;46318;52.716;6.444;2022-08-19T22:45:39;12.80;;;11.63;;
60472;SDS011;46318;52.716;6.444;2022-08-19T22:48:07;13.38;;;12.02;;
60472;SDS011;46318;52.716;6.444;2022-08-19T22:50:35;13.60;;;11.50;;
60472;SDS011;46318;52.716;6.444;2022-08-19T22:53:04;12.95;;;11.75;;
60472;SDS011;46318;52.716;6.444;2022-08-19T22:55:32;13.57;;;12.20;;
60472;SDS011;46318;52.716;6.444;2022-08-19T22:57:59;13.35;;;12.13;;
60472;SDS011;46318;52.716;6.444;2022-08-19T23:00:26;13.13;;;11.93;;
60472;SDS011;46318;52.716;6.444;2022-08-19T23:02:53;14.45;;;12.77;;
60472;SDS011;46318;52.716;6.444;2022-08-19T23:05:21;14.15;;;12.45;;
60472;SDS011;46318;52.716;6.444;2022-08-19T23:07:50;14.57;;;13.07;;
60472;SDS011;46318;52.716;6.444;2022-08-19T23:10:16;14.25;;;12.15;;
60472;SDS011;46318;52.716;6.444;2022-08-19T23:12:45;12.90;;;11.60;;
60472;SDS011;46318;52.716;6.444;2022-08-19T23:15:14;14.23;;;12.82;;
60472;SDS011;46318;52.716;6.444;2022-08-19T23:17:50;13.18;;;11.88;;
60472;SDS011;46318;52.716;6.444;2022-08-19T23:20:18;13.60;;;12.30;;
60472;SDS011;46318;52.716;6.444;2022-08-19T23:22:45;14.50;;;12.98;;
60472;SDS011;46318;52.716;6.444;2022-08-19T23:25:14;14.48;;;13.07;;
60472;SDS011;46318;52.716;6.444;2022-08-19T23:27:45;13.30;;;12.00;;
60472;SDS011;46318;52.716;6.444;2022-08-19T23:30:32;13.75;;;12.25;;
60472;SDS011;46318;52.716;6.444;2022-08-19T23:33:02;13.07;;;11.77;;
60472;SDS011;46318;52.716;6.444;2022-08-19T23:35:35;13.55;;;12.32;;
60472;SDS011;46318;52.716;6.444;2022-08-19T23:38:03;13.43;;;12.18;;
60472;SDS011;46318;52.716;6.444;2022-08-19T23:40:30;15.52;;;13.30;;
60472;SDS011;46318;52.716;6.444;2022-08-19T23:42:56;13.13;;;11.23;;
60472;SDS011;46318;52.716;6.444;2022-08-19T23:45:22;14.52;;;12.30;;
60472;SDS011;46318;52.716;6.444;2022-08-19T23:47:51;13.10;;;11.73;;
60472;SDS011;46318;52.716;6.444;2022-08-19T23:50:17;14.77;;;12.32;;
60472;SDS011;46318;52.716;6.444;2022-08-19T23:52:45;13.85;;;12.52;;
60472;SDS011;46318;52.716;6.444;2022-08-19T23:55:28;13.60;;;11.77;;
60472;SDS011;46318;52.716;6.444;2022-08-19T23:57:58;13.65;;;11.52;;
